20:20
Airports
History
Links
Donate
Help keep this website running!
PayPal
Bitcoin
Information on this page is community maintained and may be outdated or inaccurate and is intended for reference only or PC simulator navigating.
Always use approved charts for navigating.
VAAU
AURANGABAD
AURANGABAD (VAAU)
Aurangabad, Maharashtra, India (431007)
(C)
Lat/Lng:19° 51' 45.82" N / 75° 23' 53.21" E
19.862727 / 75.398113
Elevation:1911'ft 582mMSL
ID / ICAO:VAAU
Runways:1
Longest:(09-27) 2,349.6m 7,709ft Asphalt
Controlled:Yes
Distance To
Airport ID:
Airport Radio Frequencies
ATIS: 127
Tower: 122.3
Approach: 122.3
Nearby VORs <50NM
Nearby NDBs
METARUpdated 05-28-17 18:00 GMT
Altimeter: 29.74
Visibility: 3.7 statute miles
Wind: 6 knots (250°)
Temp: 30°c 86°f
Humidity: 66.2%

METAR: VAAU 281800Z 25006KT 6000 SCT020 30/23 Q1007

(Powered by phpweather)
Runway 09 / 27
Dimensions:2349.6 x 45.1m 7709' x 148'ft
Surface:Asphalt
Edge Lights:High intensity
Runway 09 [A]Runway 27 [B]
Heading:087°TH 267°TH
Lat:
Lng:
19° 51' 44.45"N
75° 23' 12.83"E
19° 51' 47.18"N
75° 24' 33.58"E
User Notes and Comments
Google Map
Nearby Airports
(U) JALGAON 77.4 NM
VA47 N 11°
(U) DHULIA 85.1 NM
VA53 NNW 329°
(C) OZAR 98.0 NM
VA35 W 280°
(U) NASIK ROAD 103.6 NM
VANR W 273°
(U) MUROD KOND 122.1 NM
VO55 SE 145°
(U) AKOLA 122.1 NM
VAAK ENE 61°
(C) PUNE 131.1 NM
VAPO SW 227°
VFR Chart
Flight Planning at SkyVector.com